createdAt,value
2018-08-31T00:01:11.700Z,53.90
2018-08-31T00:05:55.466Z,54.00
2018-08-31T00:10:37.054Z,53.90
2018-08-31T00:13:04.783Z,54.60
2018-08-31T00:15:32.418Z,55.50
2018-08-31T00:18:00.075Z,56.20
2018-08-31T00:20:27.644Z,56.50
2018-08-31T00:22:55.739Z,56.20
2018-08-31T00:26:04.596Z,56.20
2018-08-31T00:28:43.672Z,56.00
2018-08-31T00:33:28.692Z,56.10
2018-08-31T00:38:16.350Z,56.50
2018-08-31T00:42:59.926Z,56.10
2018-08-31T00:45:31.105Z,56.30
2018-08-31T00:47:59.523Z,56.70
2018-08-31T00:50:27.290Z,56.70
2018-08-31T00:52:55.103Z,56.50
2018-08-31T00:55:22.738Z,56.30
2018-08-31T00:57:51.002Z,56.40
2018-08-31T01:00:18.990Z,56.20
2018-08-31T01:02:46.730Z,56.30
2018-08-31T01:05:14.828Z,55.90
2018-08-31T01:07:42.397Z,56.10
2018-08-31T01:10:10.046Z,56.10
2018-08-31T01:12:37.830Z,56.00
2018-08-31T01:15:05.833Z,56.20
2018-08-31T01:17:33.435Z,56.20
2018-08-31T01:20:01.114Z,56.10
2018-08-31T01:22:28.750Z,56.30
2018-08-31T01:24:56.391Z,56.50
2018-08-31T01:27:24.010Z,56.70
2018-08-31T01:29:51.818Z,56.90
2018-08-31T01:32:19.446Z,57.10
2018-08-31T01:34:47.121Z,57.50
2018-08-31T01:37:14.754Z,57.40
2018-08-31T01:39:42.406Z,57.70
2018-08-31T01:42:10.354Z,57.30
2018-08-31T01:44:38.051Z,56.90
2018-08-31T01:47:05.681Z,56.90
2018-08-31T01:49:33.214Z,57.00
2018-08-31T01:52:00.857Z,56.80
2018-08-31T01:54:28.435Z,57.10
2018-08-31T01:56:56.183Z,57.50
2018-08-31T01:59:23.802Z,58.00
2018-08-31T02:01:51.456Z,58.20
2018-08-31T02:04:19.119Z,58.50
2018-08-31T02:06:46.743Z,58.50
2018-08-31T02:09:18.414Z,58.30
2018-08-31T02:11:46.600Z,57.90
2018-08-31T02:14:14.272Z,58.10
2018-08-31T02:16:41.950Z,58.30
2018-08-31T02:19:09.509Z,58.10
2018-08-31T02:21:37.144Z,58.50
2018-08-31T02:24:04.893Z,58.30
2018-08-31T02:26:32.562Z,58.00
2018-08-31T02:29:00.515Z,57.90
2018-08-31T02:31:28.187Z,57.60
2018-08-31T02:33:55.884Z,57.90
2018-08-31T02:36:23.741Z,58.00
2018-08-31T02:38:51.827Z,58.10
2018-08-31T02:41:19.422Z,58.40
2018-08-31T02:43:48.208Z,58.50
2018-08-31T02:46:16.494Z,58.90
2018-08-31T02:48:44.159Z,58.90
2018-08-31T02:51:11.927Z,59.70
2018-08-31T02:53:39.820Z,59.20
2018-08-31T02:56:07.530Z,59.70
2018-08-31T02:58:35.167Z,59.90
2018-08-31T03:01:02.867Z,60.00
2018-08-31T03:03:30.868Z,60.60
2018-08-31T03:05:58.534Z,60.80
2018-08-31T03:08:26.238Z,60.70
2018-08-31T03:10:53.846Z,61.40
2018-08-31T03:13:21.680Z,61.30
2018-08-31T03:15:49.350Z,62.10
2018-08-31T03:18:16.975Z,62.40
2018-08-31T03:20:44.607Z,62.60
2018-08-31T03:23:12.286Z,63.20
2018-08-31T03:25:39.878Z,64.20
2018-08-31T03:28:07.707Z,64.40
2018-08-31T03:30:35.415Z,64.70
2018-08-31T03:33:03.297Z,65.40
2018-08-31T03:35:31.032Z,65.00
2018-08-31T03:37:58.728Z,65.00
2018-08-31T03:40:26.363Z,65.30
2018-08-31T03:42:54.026Z,64.70
2018-08-31T03:45:21.638Z,65.60
2018-08-31T03:47:49.554Z,65.80
2018-08-31T03:50:17.266Z,65.40
2018-08-31T03:52:44.961Z,65.60
2018-08-31T03:55:12.683Z,65.70
2018-08-31T03:57:40.399Z,65.60
2018-08-31T04:00:08.740Z,65.80
2018-08-31T04:02:36.539Z,65.70
2018-08-31T04:05:04.464Z,65.70
2018-08-31T04:07:32.171Z,66.20
2018-08-31T04:09:59.838Z,66.60
2018-08-31T04:12:27.723Z,66.90
2018-08-31T04:14:55.399Z,67.10
2018-08-31T04:17:23.055Z,67.20
2018-08-31T04:19:50.714Z,67.50
2018-08-31T04:22:18.327Z,67.50
2018-08-31T04:24:46.006Z,66.70
2018-08-31T04:27:13.622Z,67.80
2018-08-31T04:29:42.095Z,67.60
2018-08-31T04:32:09.802Z,67.10
2018-08-31T04:34:37.453Z,67.30
2018-08-31T04:37:05.128Z,66.80
2018-08-31T04:39:32.716Z,67.10
2018-08-31T04:42:00.340Z,67.00
2018-08-31T04:44:27.947Z,67.00
2018-08-31T04:46:55.967Z,66.80
2018-08-31T04:49:23.580Z,66.80
2018-08-31T04:51:51.222Z,66.90
2018-08-31T04:54:19.005Z,66.70
2018-08-31T04:56:47.223Z,66.50
2018-08-31T04:59:14.943Z,66.50
2018-08-31T05:01:42.586Z,66.30
2018-08-31T05:04:10.417Z,66.40
2018-08-31T05:06:38.114Z,66.50
2018-08-31T05:09:07.863Z,66.50
2018-08-31T05:11:35.486Z,66.80
2018-08-31T05:14:03.187Z,67.10
2018-08-31T05:16:31.178Z,67.40
2018-08-31T05:18:58.866Z,68.00
2018-08-31T05:21:26.501Z,67.90
2018-08-31T05:23:54.232Z,67.80
2018-08-31T05:26:21.913Z,68.00
2018-08-31T05:28:49.598Z,67.80
2018-08-31T05:31:17.204Z,68.20
2018-08-31T05:33:44.978Z,68.30
2018-08-31T05:36:12.663Z,68.50
2018-08-31T05:38:40.378Z,69.10
2018-08-31T05:41:07.973Z,69.10
2018-08-31T05:43:35.633Z,69.70
2018-08-31T05:46:03.298Z,69.80
2018-08-31T05:48:30.960Z,69.70
2018-08-31T05:50:58.526Z,69.60
2018-08-31T05:53:26.235Z,69.30
2018-08-31T05:55:53.990Z,69.60
2018-08-31T05:58:21.639Z,69.40
2018-08-31T06:00:50.178Z,68.90
2018-08-31T06:03:17.907Z,68.90
2018-08-31T06:05:45.646Z,68.80
2018-08-31T06:08:13.291Z,69.10
2018-08-31T06:10:40.979Z,69.30
2018-08-31T06:13:08.860Z,69.30
2018-08-31T06:15:36.551Z,69.90
2018-08-31T06:18:04.250Z,70.60
2018-08-31T06:20:31.895Z,71.40
2018-08-31T06:22:59.523Z,71.60
2018-08-31T06:25:27.187Z,71.30
2018-08-31T06:27:54.868Z,71.80
2018-08-31T06:30:22.570Z,71.70
2018-08-31T06:32:50.190Z,71.20
2018-08-31T06:35:18.228Z,70.90
2018-08-31T06:37:46.110Z,71.10
2018-08-31T06:40:13.794Z,71.00
2018-08-31T06:42:41.404Z,71.30
2018-08-31T06:45:09.475Z,71.20
2018-08-31T06:47:37.371Z,71.00
2018-08-31T06:50:05.515Z,71.60
2018-08-31T06:52:33.160Z,71.70
2018-08-31T06:55:00.846Z,72.30
2018-08-31T06:57:28.624Z,71.90
2018-08-31T06:59:56.254Z,71.80
2018-08-31T07:02:23.891Z,72.30
2018-08-31T07:04:51.574Z,72.40
2018-08-31T07:07:19.231Z,72.60
2018-08-31T07:09:46.853Z,73.00
2018-08-31T07:12:14.545Z,73.70
2018-08-31T07:14:42.119Z,73.10
2018-08-31T07:17:09.754Z,72.90
2018-08-31T07:19:37.516Z,72.30
2018-08-31T07:22:05.230Z,71.80
2018-08-31T07:24:32.927Z,70.70
2018-08-31T07:27:00.590Z,68.70
2018-08-31T07:29:28.283Z,69.70
2018-08-31T07:31:55.926Z,68.60
2018-08-31T07:34:23.619Z,68.00
2018-08-31T07:36:51.267Z,68.60
2018-08-31T07:39:18.885Z,68.20
2018-08-31T07:41:46.566Z,67.80
2018-08-31T07:44:14.190Z,67.30
2018-08-31T07:46:41.851Z,67.10
2018-08-31T07:49:09.814Z,67.90
2018-08-31T07:51:37.473Z,68.30
2018-08-31T07:54:05.341Z,68.80
2018-08-31T07:56:33.390Z,68.60
2018-08-31T07:59:01.065Z,67.80
2018-08-31T08:01:28.746Z,67.90
2018-08-31T08:03:56.531Z,67.70
2018-08-31T08:06:24.234Z,67.50
2018-08-31T08:08:52.093Z,67.50
2018-08-31T08:11:19.926Z,67.60
2018-08-31T08:13:47.542Z,67.20
2018-08-31T08:16:15.220Z,67.00
2018-08-31T08:18:42.901Z,67.00
2018-08-31T08:21:10.586Z,67.50
2018-08-31T08:23:38.350Z,66.70
2018-08-31T08:26:06.140Z,66.90
2018-08-31T08:28:33.814Z,66.60
2018-08-31T08:31:01.455Z,67.10
2018-08-31T08:33:29.158Z,66.60
2018-08-31T08:35:56.888Z,66.70
2018-08-31T08:38:24.482Z,66.80
2018-08-31T08:40:52.204Z,66.40
2018-08-31T08:43:19.897Z,67.10
2018-08-31T08:45:47.552Z,67.20
2018-08-31T08:48:15.282Z,66.80
2018-08-31T08:50:42.934Z,66.80
2018-08-31T08:53:10.629Z,67.00
2018-08-31T08:55:38.295Z,66.80
2018-08-31T08:58:06.166Z,67.20
2018-08-31T09:00:33.803Z,67.70
2018-08-31T09:03:01.402Z,67.40
2018-08-31T09:05:29.033Z,67.20
2018-08-31T09:07:56.707Z,66.80
2018-08-31T09:10:24.299Z,65.90
2018-08-31T09:12:51.935Z,64.60
2018-08-31T09:15:19.558Z,64.70
2018-08-31T09:17:47.287Z,64.50
2018-08-31T09:20:15.065Z,64.30
2018-08-31T09:22:42.724Z,64.80
2018-08-31T09:25:10.411Z,64.20
2018-08-31T09:27:38.055Z,65.20
2018-08-31T09:30:10.545Z,64.70
2018-08-31T09:32:38.371Z,65.00
2018-08-31T09:35:05.935Z,64.80
2018-08-31T09:37:33.601Z,65.30
2018-08-31T09:40:01.266Z,65.80
2018-08-31T09:42:28.980Z,66.40
2018-08-31T09:44:56.606Z,65.50
2018-08-31T09:47:24.324Z,65.10
2018-08-31T09:49:51.932Z,64.50
2018-08-31T09:52:19.558Z,64.00
2018-08-31T09:54:47.240Z,63.80
2018-08-31T09:57:14.958Z,63.50
2018-08-31T09:59:42.622Z,64.00
2018-08-31T10:04:18.057Z,63.60
2018-08-31T10:06:45.630Z,63.50
2018-08-31T10:09:13.277Z,62.90
2018-08-31T10:11:40.926Z,62.40
2018-08-31T10:14:08.574Z,61.80
2018-08-31T10:16:36.298Z,59.80
2018-08-31T10:19:03.879Z,59.10
2018-08-31T10:21:31.544Z,59.00
2018-08-31T10:23:59.166Z,58.20
2018-08-31T10:26:26.774Z,57.50
2018-08-31T10:28:54.463Z,56.80
2018-08-31T10:31:22.071Z,56.50
2018-08-31T10:33:49.711Z,57.10
2018-08-31T10:36:17.350Z,58.00
2018-08-31T10:38:45.055Z,58.40
2018-08-31T10:41:12.726Z,58.50
2018-08-31T10:43:40.514Z,58.30
2018-08-31T10:46:08.152Z,58.60
2018-08-31T10:48:35.702Z,58.60
2018-08-31T10:51:03.287Z,59.00
2018-08-31T10:53:30.962Z,59.40
2018-08-31T10:55:58.550Z,59.20
2018-08-31T10:58:26.219Z,58.90
2018-08-31T11:00:53.906Z,58.50
2018-08-31T11:03:21.609Z,58.30
2018-08-31T11:05:49.218Z,58.30
2018-08-31T11:08:16.818Z,58.90
2018-08-31T11:10:44.414Z,59.40
2018-08-31T11:13:12.165Z,60.00
2018-08-31T11:15:39.718Z,59.60
2018-08-31T11:18:07.403Z,59.50
2018-08-31T11:20:35.064Z,59.90
2018-08-31T11:23:02.690Z,59.60
2018-08-31T11:25:30.470Z,59.50
2018-08-31T11:27:58.213Z,59.30
2018-08-31T11:30:25.764Z,59.20
2018-08-31T11:32:53.462Z,59.50
2018-08-31T11:35:21.123Z,58.90
2018-08-31T11:37:48.674Z,59.20
2018-08-31T11:40:16.310Z,59.00
2018-08-31T11:42:43.929Z,59.40
2018-08-31T11:45:11.591Z,58.90
2018-08-31T11:47:39.146Z,58.70
2018-08-31T11:50:06.855Z,58.30
2018-08-31T11:52:34.499Z,57.70
2018-08-31T11:55:02.149Z,57.70
2018-08-31T11:57:29.709Z,57.30
2018-08-31T11:59:57.653Z,57.50
2018-08-31T12:02:25.306Z,57.30
2018-08-31T12:04:52.964Z,57.50
2018-08-31T12:07:20.583Z,57.30
2018-08-31T12:09:48.249Z,57.00
2018-08-31T12:12:15.847Z,56.90
2018-08-31T12:14:43.482Z,56.80
2018-08-31T12:17:11.051Z,56.20
2018-08-31T12:19:38.719Z,56.10
2018-08-31T12:22:06.463Z,55.90
2018-08-31T12:24:34.171Z,56.00
2018-08-31T12:27:01.750Z,56.00
2018-08-31T12:29:29.432Z,56.30
2018-08-31T12:31:57.031Z,56.60
2018-08-31T12:34:24.709Z,56.40
2018-08-31T12:36:52.414Z,56.70
2018-08-31T12:39:20.156Z,56.80
2018-08-31T12:41:47.802Z,56.50
2018-08-31T12:44:15.453Z,56.60
2018-08-31T12:46:43.071Z,56.80
2018-08-31T12:49:10.782Z,57.20
2018-08-31T12:51:38.506Z,57.30
2018-08-31T12:54:06.222Z,56.70
2018-08-31T12:56:33.870Z,56.50
2018-08-31T12:59:01.554Z,57.20
2018-08-31T13:01:29.863Z,56.50
2018-08-31T13:03:57.676Z,55.90
2018-08-31T13:06:27.664Z,55.60
2018-08-31T13:08:55.405Z,55.90
2018-08-31T13:11:23.002Z,55.20
2018-08-31T13:13:50.667Z,54.90
2018-08-31T13:16:18.375Z,54.40
2018-08-31T13:18:46.236Z,53.80
2018-08-31T13:21:14.101Z,53.30
2018-08-31T13:23:41.882Z,53.00
2018-08-31T13:26:09.555Z,52.50
2018-08-31T13:28:37.167Z,51.80
2018-08-31T13:31:04.894Z,51.90
2018-08-31T13:33:32.553Z,50.30
2018-08-31T13:36:00.244Z,50.40
2018-08-31T13:38:27.929Z,49.50
2018-08-31T13:40:55.650Z,49.00
2018-08-31T13:43:23.360Z,48.80
2018-08-31T13:45:51.103Z,48.90
2018-08-31T13:48:18.770Z,49.90
2018-08-31T13:50:46.458Z,49.10
2018-08-31T13:53:14.121Z,48.60
2018-08-31T13:55:46.008Z,49.30
2018-08-31T13:58:14.517Z,48.80
2018-08-31T14:00:42.210Z,49.60
2018-08-31T14:03:09.810Z,50.10
2018-08-31T14:05:37.699Z,50.00
2018-08-31T14:08:05.640Z,50.30
2018-08-31T14:10:33.318Z,49.70
2018-08-31T14:13:00.974Z,49.60
2018-08-31T14:15:28.948Z,51.20
2018-08-31T14:17:56.626Z,50.50
2018-08-31T14:20:24.578Z,50.70
2018-08-31T14:22:52.338Z,50.70
2018-08-31T14:25:20.027Z,50.70
2018-08-31T14:27:48.053Z,50.60
2018-08-31T14:30:15.725Z,50.40
2018-08-31T14:32:43.338Z,50.40
2018-08-31T14:35:10.966Z,50.90
2018-08-31T14:37:38.651Z,51.40
2018-08-31T14:40:07.181Z,50.80
2018-08-31T14:42:34.847Z,51.00
2018-08-31T14:45:02.604Z,51.50
2018-08-31T14:47:30.293Z,51.20
2018-08-31T14:49:58.027Z,51.10
2018-08-31T14:52:25.708Z,51.70
2018-08-31T14:54:53.291Z,55.10
2018-08-31T14:57:20.907Z,59.00
2018-08-31T14:59:48.548Z,60.00
2018-08-31T15:02:16.217Z,61.90
2018-08-31T15:04:43.826Z,62.80
2018-08-31T15:07:12.275Z,63.60
2018-08-31T15:09:40.073Z,64.30
2018-08-31T15:12:07.800Z,66.30
2018-08-31T15:14:35.430Z,66.00
2018-08-31T15:17:03.232Z,66.80
2018-08-31T15:19:32.126Z,67.00
2018-08-31T15:21:59.819Z,67.80
2018-08-31T15:24:27.470Z,68.30
2018-08-31T15:26:55.139Z,69.50
2018-08-31T15:29:22.730Z,70.10
2018-08-31T15:31:51.218Z,70.60
2018-08-31T15:34:18.810Z,70.50
2018-08-31T15:36:47.495Z,70.90
2018-08-31T15:39:15.154Z,71.90
2018-08-31T15:41:45.617Z,72.10
2018-08-31T15:44:13.252Z,72.10
2018-08-31T15:46:40.990Z,72.50
2018-08-31T15:49:08.631Z,72.70
2018-08-31T15:51:36.267Z,73.10
2018-08-31T15:54:03.960Z,73.10
2018-08-31T15:56:31.538Z,72.90
2018-08-31T15:58:59.179Z,73.40
2018-08-31T16:01:27.583Z,73.20
2018-08-31T16:03:55.143Z,73.00
2018-08-31T16:06:22.870Z,72.70
2018-08-31T16:08:50.775Z,73.00
2018-08-31T16:11:18.487Z,72.30
2018-08-31T16:13:46.099Z,72.10
2018-08-31T16:16:13.686Z,71.10
2018-08-31T16:18:41.527Z,71.60
2018-08-31T16:21:09.210Z,71.80
2018-08-31T16:23:36.850Z,72.00
2018-08-31T16:26:04.538Z,72.40
2018-08-31T16:28:32.134Z,72.10
2018-08-31T16:30:59.928Z,72.80
2018-08-31T16:33:27.568Z,72.90
2018-08-31T16:35:55.164Z,72.40
2018-08-31T16:38:22.956Z,72.90
2018-08-31T16:40:50.614Z,72.60
2018-08-31T16:43:18.359Z,72.40
2018-08-31T16:45:46.022Z,72.50
2018-08-31T16:48:13.596Z,73.20
2018-08-31T16:50:41.236Z,73.20
2018-08-31T16:53:08.894Z,72.90
2018-08-31T16:55:36.493Z,72.60
2018-08-31T16:58:04.219Z,73.30
2018-08-31T17:00:32.278Z,73.50
2018-08-31T17:02:59.882Z,73.70
2018-08-31T17:05:27.499Z,73.90
2018-08-31T17:07:55.205Z,74.60
2018-08-31T17:10:22.708Z,74.40
2018-08-31T17:12:50.523Z,74.80
2018-08-31T17:15:18.166Z,74.90
2018-08-31T17:17:45.871Z,75.00
2018-08-31T17:20:14.887Z,74.80
2018-08-31T17:22:42.829Z,75.30
2018-08-31T17:25:10.534Z,75.20
2018-08-31T17:27:44.738Z,75.20
2018-08-31T17:30:17.852Z,74.70
2018-08-31T17:32:51.122Z,75.00
2018-08-31T17:35:24.308Z,74.60
2018-08-31T17:37:52.009Z,74.50
2018-08-31T17:40:19.740Z,74.00
2018-08-31T17:42:47.314Z,73.80
2018-08-31T17:45:19.797Z,74.00
2018-08-31T17:47:49.297Z,74.40
2018-08-31T17:50:17.092Z,74.60
2018-08-31T17:52:45.170Z,75.00
2018-08-31T17:55:12.972Z,74.90
2018-08-31T17:57:40.712Z,75.10
2018-08-31T18:00:09.042Z,74.60
2018-08-31T18:02:36.643Z,75.00
2018-08-31T18:05:04.319Z,75.00
2018-08-31T18:07:31.992Z,75.40
2018-08-31T18:09:59.669Z,74.80
2018-08-31T18:12:27.416Z,75.20
2018-08-31T18:14:55.552Z,75.30
2018-08-31T18:17:23.362Z,75.70
2018-08-31T18:19:51.050Z,75.60
2018-08-31T18:22:18.655Z,75.60
2018-08-31T18:24:46.302Z,75.30
2018-08-31T18:27:14.016Z,75.40
2018-08-31T18:29:41.702Z,75.80
2018-08-31T18:32:09.364Z,75.70
2018-08-31T18:34:38.256Z,75.60
2018-08-31T18:37:05.898Z,75.50
2018-08-31T18:39:33.572Z,75.00
2018-08-31T18:42:01.142Z,74.40
2018-08-31T18:44:28.776Z,74.30
2018-08-31T18:46:56.385Z,73.90
2018-08-31T18:49:24.028Z,73.40
2018-08-31T18:51:51.608Z,73.10
2018-08-31T18:54:19.430Z,73.60
2018-08-31T18:56:47.050Z,73.90
2018-08-31T18:59:14.775Z,74.10
2018-08-31T19:01:42.731Z,74.70
2018-08-31T19:04:10.431Z,74.80
2018-08-31T19:06:38.066Z,75.50
2018-08-31T19:09:06.969Z,75.60
2018-08-31T19:11:34.698Z,75.80
2018-08-31T19:14:02.383Z,75.50
2018-08-31T19:16:29.971Z,75.40
2018-08-31T19:18:57.552Z,75.90
2018-08-31T19:21:25.177Z,76.90
2018-08-31T19:23:52.902Z,77.80
2018-08-31T19:26:20.590Z,78.40
2018-08-31T19:28:48.331Z,78.60
2018-08-31T19:31:18.069Z,78.60
2018-08-31T19:33:45.818Z,79.00
2018-08-31T19:36:13.761Z,79.40
2018-08-31T19:38:41.500Z,79.70
2018-08-31T19:41:09.272Z,79.60
2018-08-31T19:43:37.895Z,79.60
2018-08-31T19:46:06.238Z,79.80
2018-08-31T19:48:33.996Z,80.20
2018-08-31T19:51:02.037Z,80.40
2018-08-31T19:53:29.781Z,80.10
2018-08-31T19:55:57.443Z,80.40
2018-08-31T19:58:25.174Z,80.30
2018-08-31T20:00:52.787Z,80.50
2018-08-31T20:03:20.475Z,80.70
2018-08-31T20:05:48.122Z,80.40
2018-08-31T20:08:15.839Z,80.40
2018-08-31T20:10:43.508Z,80.30
2018-08-31T20:13:11.248Z,80.60
2018-08-31T20:15:39.336Z,80.30
2018-08-31T20:18:07.048Z,80.10
2018-08-31T20:20:34.837Z,79.80
2018-08-31T20:23:02.604Z,79.60
2018-08-31T20:25:30.534Z,79.50
2018-08-31T20:27:58.363Z,79.80
2018-08-31T20:30:25.954Z,79.60
2018-08-31T20:32:53.913Z,79.70
2018-08-31T20:35:21.751Z,79.40
2018-08-31T20:37:49.495Z,79.20
2018-08-31T20:40:17.179Z,78.50
2018-08-31T20:42:44.767Z,78.60
2018-08-31T20:45:12.424Z,78.80
2018-08-31T20:47:40.053Z,79.10
2018-08-31T20:50:07.762Z,79.30
2018-08-31T20:52:35.410Z,79.00
2018-08-31T20:55:03.049Z,79.50
2018-08-31T20:57:30.641Z,79.40
2018-08-31T20:59:58.350Z,79.40
2018-08-31T21:02:26.274Z,80.30
2018-08-31T21:04:53.876Z,80.10
2018-08-31T21:07:22.411Z,80.40
2018-08-31T21:09:50.347Z,80.20
2018-08-31T21:12:18.066Z,80.60
2018-08-31T21:14:45.730Z,81.30
2018-08-31T21:17:13.350Z,81.50
2018-08-31T21:19:40.947Z,81.00
2018-08-31T21:22:08.590Z,81.10
2018-08-31T21:24:36.195Z,81.30
2018-08-31T21:27:03.891Z,81.40
2018-08-31T21:29:31.547Z,82.50
2018-08-31T21:31:59.162Z,82.20
2018-08-31T21:34:26.864Z,82.30
2018-08-31T21:36:54.432Z,82.50
2018-08-31T21:39:22.063Z,82.60
2018-08-31T21:41:49.714Z,82.90
2018-08-31T21:44:17.250Z,82.70
2018-08-31T21:46:44.917Z,82.60
2018-08-31T21:49:12.537Z,82.70
2018-08-31T21:51:40.180Z,82.10
2018-08-31T21:54:07.758Z,82.10
2018-08-31T21:56:35.414Z,81.90
2018-08-31T21:59:03.050Z,82.30
2018-08-31T22:01:36.346Z,82.50
2018-08-31T22:04:04.059Z,82.10
2018-08-31T22:06:31.794Z,82.00
2018-08-31T22:08:59.403Z,82.40
2018-08-31T22:11:27.050Z,82.20
2018-08-31T22:13:54.709Z,82.20
2018-08-31T22:16:22.400Z,82.80
2018-08-31T22:18:49.939Z,82.20
2018-08-31T22:21:17.649Z,82.70
2018-08-31T22:23:45.231Z,83.00
2018-08-31T22:26:12.919Z,83.20
2018-08-31T22:28:40.516Z,83.80
2018-08-31T22:31:08.165Z,84.20
2018-08-31T22:33:35.764Z,84.80
2018-08-31T22:36:03.604Z,83.90
2018-08-31T22:38:31.236Z,83.40
2018-08-31T22:40:58.874Z,83.30
2018-08-31T22:43:32.011Z,82.70
2018-08-31T22:45:59.642Z,83.60
2018-08-31T22:48:27.295Z,84.60
2018-08-31T22:50:54.894Z,85.20
2018-08-31T22:53:22.514Z,85.80
2018-08-31T22:55:50.197Z,85.80
2018-08-31T22:58:17.774Z,86.60
2018-08-31T23:00:45.442Z,87.70
2018-08-31T23:03:13.118Z,88.10
2018-08-31T23:05:40.773Z,88.10
2018-08-31T23:08:08.412Z,87.80
2018-08-31T23:10:36.123Z,87.70
2018-08-31T23:13:03.874Z,87.60
2018-08-31T23:15:31.471Z,87.70
2018-08-31T23:17:59.100Z,87.50
2018-08-31T23:20:26.870Z,88.00
2018-08-31T23:23:00.139Z,87.60
2018-08-31T23:25:33.552Z,87.80
2018-08-31T23:28:01.118Z,88.10
2018-08-31T23:30:28.730Z,87.20
2018-08-31T23:32:56.494Z,86.80
2018-08-31T23:35:24.139Z,86.90
2018-08-31T23:37:51.798Z,87.80
2018-08-31T23:40:19.394Z,88.20
2018-08-31T23:42:47.103Z,88.20
2018-08-31T23:45:14.711Z,88.40
2018-08-31T23:47:42.342Z,88.60
2018-08-31T23:50:09.991Z,88.60
2018-08-31T23:52:37.644Z,88.10
2018-08-31T23:55:05.267Z,87.00
2018-08-31T23:57:32.948Z,86.80
